createdAt,value
2023-02-04T00:00:31.328Z,100290.63
2023-02-04T00:03:00.139Z,100290.80
2023-02-04T00:05:28.754Z,100289.70
2023-02-04T00:07:58.094Z,100284.00
2023-02-04T00:10:26.755Z,100277.29
2023-02-04T00:12:55.100Z,100269.48
2023-02-04T00:15:23.696Z,100263.92
2023-02-04T00:17:52.972Z,100265.38
2023-02-04T00:20:21.520Z,100269.73
2023-02-04T00:22:51.655Z,100267.74
2023-02-04T00:25:20.123Z,100267.00
2023-02-04T00:27:49.667Z,100262.89
2023-02-04T00:30:19.669Z,100266.82
2023-02-04T00:32:48.304Z,100262.33
2023-02-04T00:35:17.028Z,100260.90
2023-02-04T00:37:45.546Z,100261.98
2023-02-04T00:40:14.226Z,100261.48
2023-02-04T00:42:45.917Z,100263.73
2023-02-04T00:45:15.203Z,100265.61
2023-02-04T00:47:43.882Z,100254.91
2023-02-04T00:50:12.983Z,100250.33
2023-02-04T00:52:42.172Z,100241.98
2023-02-04T00:55:12.539Z,100245.66
2023-02-04T00:57:41.116Z,100240.37
2023-02-04T01:00:10.522Z,100243.00
2023-02-04T01:02:41.054Z,100244.77
2023-02-04T01:05:10.712Z,100242.07
2023-02-04T01:07:43.136Z,100237.88
2023-02-04T01:10:14.968Z,100234.77
2023-02-04T01:12:47.946Z,100238.23
2023-02-04T01:15:17.270Z,100234.65
2023-02-04T01:17:46.765Z,100236.95
2023-02-04T01:20:15.213Z,100231.77
2023-02-04T01:22:43.485Z,100232.64
2023-02-04T01:25:12.003Z,100233.98
2023-02-04T01:27:44.818Z,100233.70
2023-02-04T01:30:14.591Z,100233.91
2023-02-04T01:32:44.444Z,100231.92
2023-02-04T01:35:13.083Z,100229.48
2023-02-04T01:37:42.944Z,100231.73
2023-02-04T01:40:12.360Z,100227.45
2023-02-04T01:42:41.757Z,100230.14
2023-02-04T01:45:10.823Z,100236.82
2023-02-04T01:47:41.112Z,100235.20
2023-02-04T01:50:11.958Z,100234.49
2023-02-04T01:52:41.091Z,100234.58
2023-02-04T01:55:52.909Z,100242.52
2023-02-04T01:59:02.825Z,100235.71
2023-02-04T02:51:22.179Z,100253.00
2023-02-04T03:16:27.532Z,100246.20
2023-02-04T03:30:42.436Z,100244.64
2023-02-04T03:36:50.718Z,100243.62
2023-02-04T03:40:04.498Z,100243.06
2023-02-04T04:17:20.685Z,100260.05
2023-02-04T04:23:29.437Z,100259.33
2023-02-04T04:34:45.867Z,100254.35
2023-02-04T04:51:00.836Z,100263.48
2023-02-04T04:59:38.716Z,100271.50
2023-02-04T05:19:36.796Z,100301.70
2023-02-04T05:22:06.309Z,100310.89
2023-02-04T05:24:34.971Z,100312.46
2023-02-04T05:27:04.137Z,100316.16
2023-02-04T05:29:34.355Z,100324.35
2023-02-04T05:32:02.943Z,100329.20
2023-02-04T05:34:31.321Z,100332.11
2023-02-04T05:37:00.676Z,100332.00
2023-02-04T05:39:30.150Z,100333.70
2023-02-04T05:41:59.127Z,100334.47
2023-02-04T05:44:29.265Z,100335.04
2023-02-04T05:46:58.150Z,100339.09
2023-02-04T05:49:27.064Z,100339.09
2023-02-04T05:51:56.331Z,100344.50
2023-02-04T05:54:26.352Z,100344.42
2023-02-04T05:56:54.848Z,100343.30
2023-02-04T05:59:23.557Z,100341.83
2023-02-04T06:01:51.959Z,100346.86
2023-02-04T06:04:20.759Z,100345.13
2023-02-04T06:06:51.553Z,100344.63
2023-02-04T06:09:20.288Z,100352.17
2023-02-04T06:11:48.764Z,100355.25
2023-02-04T06:14:17.477Z,100354.73
2023-02-04T06:16:46.166Z,100357.29
2023-02-04T06:19:14.814Z,100358.61
2023-02-04T06:21:43.414Z,100364.12
2023-02-04T06:24:13.256Z,100365.78
2023-02-04T06:26:41.867Z,100367.59
2023-02-04T06:29:11.336Z,100366.54
2023-02-04T06:31:42.378Z,100369.55
2023-02-04T06:35:07.474Z,100371.94
2023-02-04T06:37:36.897Z,100375.34
2023-02-04T06:40:06.463Z,100379.13
2023-02-04T06:42:35.530Z,100380.35
2023-02-04T06:45:04.258Z,100385.07
2023-02-04T06:47:33.315Z,100384.98
2023-02-04T06:50:01.996Z,100390.33
2023-02-04T06:52:30.990Z,100390.52
2023-02-04T06:54:59.739Z,100393.11
2023-02-04T06:57:30.231Z,100394.23
2023-02-04T07:00:01.265Z,100394.81
2023-02-04T07:02:30.750Z,100399.27
2023-02-04T07:05:01.449Z,100405.54
2023-02-04T07:07:31.055Z,100406.69
2023-02-04T07:09:59.707Z,100404.20
2023-02-04T07:12:28.514Z,100407.38
2023-02-04T07:15:02.062Z,100408.42
2023-02-04T07:17:30.989Z,100409.02
2023-02-04T07:20:25.500Z,100407.08
2023-02-04T07:22:54.492Z,100411.02
2023-02-04T07:25:23.686Z,100416.73
2023-02-04T07:27:52.215Z,100416.27
2023-02-04T07:30:21.472Z,100414.31
2023-02-04T07:32:50.273Z,100421.66
2023-02-04T07:35:18.861Z,100421.20
2023-02-04T07:37:47.434Z,100422.73
2023-02-04T07:40:16.249Z,100423.04
2023-02-04T07:42:46.787Z,100418.56
2023-02-04T07:45:17.730Z,100417.11
2023-02-04T07:47:46.628Z,100418.98
2023-02-04T07:50:15.414Z,100421.44
2023-02-04T07:52:44.588Z,100426.39
2023-02-04T07:55:13.453Z,100424.95
2023-02-04T07:57:42.387Z,100427.20
2023-02-04T08:00:14.482Z,100431.97
2023-02-04T08:02:43.783Z,100433.84
2023-02-04T08:05:12.959Z,100434.49
2023-02-04T08:07:43.993Z,100435.03
2023-02-04T08:10:12.609Z,100437.27
2023-02-04T08:12:43.068Z,100442.75
2023-02-04T08:15:11.551Z,100448.75
2023-02-04T08:17:40.652Z,100445.58
2023-02-04T08:20:10.025Z,100453.41
2023-02-04T08:22:40.369Z,100459.84
2023-02-04T08:25:11.695Z,100461.29
2023-02-04T08:27:44.123Z,100466.52
2023-02-04T08:30:14.974Z,100470.67
2023-02-04T08:36:16.253Z,100473.96
2023-02-04T08:39:07.764Z,100471.87
2023-02-04T08:41:36.553Z,100472.75
2023-02-04T08:44:06.167Z,100473.98
2023-02-04T08:46:39.015Z,100478.35
2023-02-04T08:49:10.720Z,100478.09
2023-02-04T08:52:03.193Z,100476.73
2023-02-04T08:54:34.966Z,100470.55
2023-02-04T08:57:03.970Z,100471.38
2023-02-04T08:59:32.547Z,100470.90
2023-02-04T09:02:03.453Z,100472.59
2023-02-04T09:04:31.901Z,100473.14
2023-02-04T09:07:01.068Z,100469.30
2023-02-04T09:09:29.800Z,100468.61
2023-02-04T09:12:02.251Z,100457.51
2023-02-04T09:14:35.018Z,100462.88
2023-02-04T09:17:06.035Z,100458.33
2023-02-04T09:19:37.499Z,100458.44
2023-02-04T09:22:06.753Z,100460.02
2023-02-04T09:24:35.273Z,100463.09
2023-02-04T09:27:03.926Z,100465.98
2023-02-04T09:29:34.020Z,100468.08
2023-02-04T09:32:02.729Z,100472.85
2023-02-04T09:34:31.915Z,100477.55
2023-02-04T09:37:00.463Z,100477.83
2023-02-04T09:39:29.271Z,100477.25
2023-02-04T09:42:00.340Z,100479.82
2023-02-04T09:44:29.151Z,100472.64
2023-02-04T09:46:59.867Z,100473.45
2023-02-04T09:49:28.760Z,100468.33
2023-02-04T09:51:57.308Z,100467.16
2023-02-04T09:54:26.260Z,100470.11
2023-02-04T09:57:04.680Z,100472.40
2023-02-04T10:00:00.327Z,100473.23
2023-02-04T10:02:48.587Z,100471.48
2023-02-04T10:05:38.431Z,100470.60
2023-02-04T10:08:06.869Z,100473.35
2023-02-04T10:10:35.801Z,100463.26
2023-02-04T10:13:04.975Z,100463.15
2023-02-04T10:15:34.728Z,100464.02
2023-02-04T10:18:05.182Z,100466.77
2023-02-04T10:20:34.196Z,100469.30
2023-02-04T10:23:02.830Z,100465.13
2023-02-04T10:25:31.357Z,100464.13
2023-02-04T10:28:00.572Z,100465.95
2023-02-04T10:30:33.986Z,100468.20
2023-02-04T10:33:13.706Z,100474.56
2023-02-04T10:35:47.039Z,100475.60
2023-02-04T10:38:16.128Z,100472.58
2023-02-04T10:40:46.420Z,100473.09
2023-02-04T10:43:19.083Z,100474.77
2023-02-04T10:45:52.515Z,100475.88
2023-02-04T10:48:21.500Z,100475.58
2023-02-04T10:50:50.120Z,100475.69
2023-02-04T10:53:39.240Z,100472.69
2023-02-04T10:56:18.624Z,100473.33
2023-02-04T10:58:48.438Z,100474.59
2023-02-04T11:01:17.540Z,100472.69
2023-02-04T11:03:48.208Z,100475.89
2023-02-04T11:06:24.008Z,100476.91
2023-02-04T11:08:57.970Z,100476.14
2023-02-04T11:11:27.563Z,100479.74
2023-02-04T11:13:56.012Z,100476.29
2023-02-04T11:16:25.990Z,100477.91
2023-02-04T11:18:56.277Z,100479.09
2023-02-04T11:21:35.025Z,100477.80
2023-02-04T11:24:12.674Z,100474.66
2023-02-04T11:26:42.317Z,100468.10
2023-02-04T11:29:27.743Z,100466.60
2023-02-04T11:31:59.049Z,100463.00
2023-02-04T11:34:29.435Z,100460.46
2023-02-04T11:37:08.355Z,100461.20
2023-02-04T11:39:39.986Z,100458.95
2023-02-04T11:42:27.990Z,100460.61
2023-02-04T11:45:02.083Z,100460.33
2023-02-04T11:47:36.964Z,100463.41
2023-02-04T11:50:30.787Z,100464.91
2023-02-04T11:53:04.801Z,100467.43
2023-02-04T11:55:36.367Z,100471.83
2023-02-04T11:58:08.905Z,100477.24
2023-02-04T12:00:38.552Z,100480.07
2023-02-04T12:03:22.183Z,100481.50
2023-02-04T12:05:51.396Z,100487.84
2023-02-04T12:08:24.022Z,100487.79
2023-02-04T12:10:52.527Z,100490.83
2023-02-04T12:13:24.795Z,100488.13
2023-02-04T12:16:00.297Z,100497.70
2023-02-04T12:18:29.663Z,100500.50
2023-02-04T12:20:58.659Z,100505.05
2023-02-04T12:23:28.540Z,100510.02
2023-02-04T12:25:58.391Z,100514.67
2023-02-04T12:28:46.687Z,100517.75
2023-02-04T12:31:22.970Z,100523.23
2023-02-04T12:37:30.387Z,100535.56
2023-02-04T12:40:02.888Z,100541.66
2023-02-04T12:42:32.990Z,100542.81
2023-02-04T12:45:02.268Z,100544.23
2023-02-04T12:47:36.994Z,100545.44
2023-02-04T12:50:07.987Z,100547.02
2023-02-04T12:52:39.897Z,100550.66
2023-02-04T13:02:02.777Z,100561.52
2023-02-04T13:04:46.559Z,100562.17
2023-02-04T13:07:29.271Z,100563.33
2023-02-04T13:14:56.734Z,100561.92
2023-02-04T13:17:44.776Z,100563.25
2023-02-04T13:20:14.415Z,100565.08
2023-02-04T13:23:05.532Z,100564.69
2023-02-04T13:25:56.305Z,100567.20
2023-02-04T13:28:42.395Z,100568.77
2023-02-04T13:31:12.580Z,100569.93
2023-02-04T13:33:43.386Z,100570.05
2023-02-04T13:36:12.224Z,100575.87
2023-02-04T13:38:55.563Z,100582.27
2023-02-04T13:41:44.364Z,100584.55
2023-02-04T13:50:52.186Z,100585.75
2023-02-04T13:53:32.424Z,100590.48
2023-02-04T13:56:13.740Z,100589.99
2023-02-04T13:58:56.428Z,100592.11
2023-02-04T14:02:45.030Z,100593.02
2023-02-04T14:26:52.024Z,100600.05
2023-02-04T14:29:20.599Z,100601.27
2023-02-04T14:31:49.509Z,100597.05
2023-02-04T14:34:17.957Z,100597.76
2023-02-04T14:36:46.524Z,100601.62
2023-02-04T14:39:22.404Z,100603.41
2023-02-04T14:41:51.320Z,100604.13
2023-02-04T14:44:21.142Z,100600.37
2023-02-04T14:46:49.812Z,100603.46
2023-02-04T14:49:18.312Z,100607.51
2023-02-04T14:51:48.010Z,100611.40
2023-02-04T14:54:17.803Z,100613.98
2023-02-04T14:56:48.369Z,100613.89
2023-02-04T14:59:22.793Z,100623.48
2023-02-04T15:02:52.252Z,100629.00
2023-02-04T15:05:23.248Z,100632.72
2023-02-04T15:07:51.932Z,100634.03
2023-02-04T15:10:24.880Z,100646.20
2023-02-04T15:12:57.698Z,100649.41
2023-02-04T15:15:32.697Z,100652.63
2023-02-04T15:18:01.254Z,100657.49
2023-02-04T15:20:31.736Z,100660.44
2023-02-04T15:23:00.956Z,100658.08
2023-02-04T15:25:29.645Z,100660.91
2023-02-04T15:27:58.204Z,100667.52
2023-02-04T15:30:29.416Z,100672.94
2023-02-04T15:32:59.447Z,100673.98
2023-02-04T15:35:29.596Z,100675.96
2023-02-04T15:37:58.937Z,100679.20
2023-02-04T15:40:30.353Z,100676.73
2023-02-04T15:43:00.546Z,100676.14
2023-02-04T15:45:29.935Z,100677.09
2023-02-04T15:47:58.449Z,100673.51
2023-02-04T15:50:26.956Z,100676.45
2023-02-04T15:52:57.835Z,100686.43
2023-02-04T15:55:26.767Z,100684.16
2023-02-04T15:57:55.308Z,100683.20
2023-02-04T16:00:24.682Z,100689.40
2023-02-04T16:02:54.050Z,100685.77
2023-02-04T16:05:23.039Z,100690.70
2023-02-04T16:07:51.885Z,100695.21
2023-02-04T16:10:20.535Z,100696.52
2023-02-04T16:12:49.648Z,100694.63
2023-02-04T16:15:18.560Z,100697.58
2023-02-04T16:17:48.176Z,100695.61
2023-02-04T16:20:18.006Z,100693.06
2023-02-04T16:22:46.910Z,100694.61
2023-02-04T16:26:19.118Z,100695.38
2023-02-04T16:28:48.163Z,100693.42
2023-02-04T16:31:17.040Z,100695.75
2023-02-04T16:33:45.585Z,100696.06
2023-02-04T16:36:14.382Z,100702.31
2023-02-04T16:38:43.831Z,100705.34
2023-02-04T16:41:17.446Z,100710.08
2023-02-04T16:43:48.835Z,100711.79
2023-02-04T16:46:18.317Z,100711.95
2023-02-04T16:48:47.113Z,100713.68
2023-02-04T16:51:20.682Z,100714.27
2023-02-04T16:53:50.700Z,100708.67
2023-02-04T16:56:19.356Z,100709.96
2023-02-04T16:58:48.591Z,100715.11
2023-02-04T17:01:19.656Z,100717.11
2023-02-04T17:03:48.108Z,100720.25
2023-02-04T17:06:17.071Z,100719.47
2023-02-04T17:08:45.726Z,100717.53
2023-02-04T17:11:29.350Z,100719.73
2023-02-04T17:14:02.770Z,100718.14
2023-02-04T17:16:31.802Z,100722.25
2023-02-04T17:19:00.557Z,100724.45
2023-02-04T17:21:29.952Z,100724.13
2023-02-04T17:24:04.313Z,100725.59
2023-02-04T17:26:37.707Z,100727.42
2023-02-04T17:29:17.651Z,100725.90
2023-02-04T17:31:46.328Z,100729.09
2023-02-04T17:34:14.870Z,100733.83
2023-02-04T17:36:43.513Z,100735.19
2023-02-04T17:40:14.641Z,100737.22
2023-02-04T17:42:43.961Z,100740.55
2023-02-04T17:45:12.544Z,100737.45
2023-02-04T17:47:42.778Z,100740.20
2023-02-04T17:50:12.126Z,100741.19
2023-02-04T17:52:40.701Z,100742.88
2023-02-04T17:55:18.000Z,100745.67
2023-02-04T17:57:49.741Z,100749.30
2023-02-04T18:00:26.318Z,100752.80
2023-02-04T18:02:54.991Z,100753.41
2023-02-04T18:05:25.650Z,100753.35
2023-02-04T18:08:20.804Z,100748.39
2023-02-04T18:10:50.409Z,100749.94
2023-02-04T18:13:30.285Z,100751.09
2023-02-04T18:16:00.627Z,100752.48
2023-02-04T18:18:36.055Z,100753.45
2023-02-04T18:21:23.295Z,100754.55
2023-02-04T18:24:07.552Z,100755.48
2023-02-04T18:26:43.289Z,100752.82
2023-02-04T18:29:27.016Z,100753.41
2023-02-04T18:32:10.638Z,100755.84
2023-02-04T18:34:41.195Z,100763.59
2023-02-04T18:37:33.642Z,100764.09
2023-02-04T18:40:12.946Z,100763.51
2023-02-04T18:42:43.790Z,100763.75
2023-02-04T18:45:45.081Z,100760.52
2023-02-04T18:48:20.585Z,100768.13
2023-02-04T18:50:51.973Z,100765.92
2023-02-04T18:53:25.671Z,100769.46
2023-02-04T18:55:55.654Z,100772.23
2023-02-04T18:58:39.873Z,100776.69
2023-02-04T19:01:12.658Z,100776.43
2023-02-04T19:03:56.012Z,100782.21
2023-02-04T19:06:29.729Z,100780.90
2023-02-04T19:09:18.292Z,100781.38
2023-02-04T19:11:48.499Z,100778.63
2023-02-04T19:14:43.435Z,100781.35
2023-02-04T19:17:15.576Z,100777.63
2023-02-04T19:19:47.727Z,100779.57
2023-02-04T19:22:24.031Z,100777.77
2023-02-04T19:24:57.924Z,100779.68
2023-02-04T19:27:29.398Z,100782.33
2023-02-04T19:30:00.304Z,100779.66
2023-02-04T19:32:40.332Z,100776.44
2023-02-04T19:35:30.341Z,100780.70
2023-02-04T19:38:00.863Z,100783.73
2023-02-04T19:40:35.262Z,100786.48
2023-02-04T19:43:27.357Z,100785.15
2023-02-04T19:45:56.027Z,100786.58
2023-02-04T19:48:35.976Z,100784.86
2023-02-04T19:51:32.707Z,100788.11
2023-02-04T19:54:02.901Z,100788.80
2023-02-04T19:56:36.505Z,100787.77
2023-02-04T19:59:34.480Z,100786.09
2023-02-04T20:02:22.947Z,100786.23
2023-02-04T20:04:53.500Z,100780.49
2023-02-04T20:07:23.900Z,100788.48
2023-02-04T20:10:20.980Z,100786.56
2023-02-04T20:13:13.112Z,100786.83
2023-02-04T20:15:41.684Z,100790.54
2023-02-04T20:18:20.403Z,100790.38
2023-02-04T20:20:49.040Z,100792.02
2023-02-04T20:23:22.507Z,100790.91
2023-02-04T20:25:51.535Z,100793.77
2023-02-04T20:28:56.421Z,100790.68
2023-02-04T20:31:27.438Z,100792.50
2023-02-04T20:33:59.686Z,100791.06
2023-02-04T20:36:38.718Z,100794.11
2023-02-04T20:39:13.802Z,100797.05
2023-02-04T20:41:42.601Z,100800.86
2023-02-04T20:44:22.857Z,100801.00
2023-02-04T20:47:13.658Z,100804.38
2023-02-04T20:49:43.008Z,100804.27
2023-02-04T20:52:44.270Z,100803.39
2023-02-04T20:55:17.601Z,100808.50
2023-02-04T20:57:46.457Z,100807.77
2023-02-04T21:00:24.117Z,100809.48
2023-02-04T21:02:52.625Z,100807.63
2023-02-04T21:05:22.576Z,100809.40
2023-02-04T21:07:51.596Z,100809.70
2023-02-04T21:10:20.248Z,100810.27
2023-02-04T21:12:49.093Z,100809.69
2023-02-04T21:15:18.477Z,100811.62
2023-02-04T21:17:47.062Z,100809.48
2023-02-04T21:20:15.901Z,100812.91
2023-02-04T21:22:44.629Z,100813.61
2023-02-04T21:25:13.328Z,100817.20
2023-02-04T21:27:41.919Z,100820.88
2023-02-04T21:30:11.685Z,100821.86
2023-02-04T21:32:44.638Z,100820.61
2023-02-04T21:35:13.815Z,100818.68
2023-02-04T21:37:43.392Z,100823.70
2023-02-04T21:40:13.310Z,100823.63
2023-02-04T21:42:42.581Z,100827.13
2023-02-04T21:45:11.232Z,100826.66
2023-02-04T21:47:40.458Z,100827.42
2023-02-04T21:50:10.739Z,100826.05
2023-02-04T21:52:43.237Z,100827.41
2023-02-04T21:55:13.271Z,100824.67
2023-02-04T21:57:43.179Z,100827.17
2023-02-04T22:00:12.059Z,100829.81
2023-02-04T22:02:41.080Z,100831.94
2023-02-04T22:05:13.826Z,100832.48
2023-02-04T22:07:46.186Z,100834.68
2023-02-04T22:10:17.335Z,100838.48
2023-02-04T22:13:24.629Z,100840.55
2023-02-04T22:15:55.266Z,100842.41
2023-02-04T22:18:24.098Z,100843.64
2023-02-04T22:20:52.880Z,100845.69
2023-02-04T22:23:21.481Z,100846.73
2023-02-04T22:25:50.579Z,100846.73
2023-02-04T22:28:19.335Z,100844.77
2023-02-04T22:30:48.290Z,100842.52
2023-02-04T22:33:20.512Z,100845.05
2023-02-04T22:35:49.888Z,100843.39
2023-02-04T22:38:21.312Z,100841.11
2023-02-04T22:44:36.428Z,100843.77
2023-02-04T22:47:07.534Z,100841.60
2023-02-04T22:49:36.103Z,100843.61
2023-02-04T22:52:05.098Z,100845.46
2023-02-04T22:54:44.810Z,100842.39
2023-02-04T22:57:16.297Z,100839.98
2023-02-04T22:59:44.932Z,100839.26
2023-02-04T23:02:13.616Z,100843.76
2023-02-04T23:04:44.129Z,100843.98
2023-02-04T23:07:15.747Z,100844.69
2023-02-04T23:09:44.337Z,100847.55
2023-02-04T23:12:13.196Z,100846.14
2023-02-04T23:14:45.507Z,100843.55
2023-02-04T23:17:17.179Z,100841.40
2023-02-04T23:19:45.681Z,100843.55
2023-02-04T23:22:14.406Z,100844.33
2023-02-04T23:24:42.896Z,100843.23
2023-02-04T23:27:12.000Z,100842.45
2023-02-04T23:29:40.504Z,100843.77
2023-02-04T23:32:09.371Z,100846.30
2023-02-04T23:34:37.994Z,100846.88
2023-02-04T23:37:06.748Z,100853.34
2023-02-04T23:39:35.989Z,100850.34
2023-02-04T23:42:04.540Z,100848.75
2023-02-04T23:44:33.114Z,100853.69
2023-02-04T23:47:01.792Z,100852.41
2023-02-04T23:49:30.333Z,100853.11
2023-02-04T23:51:59.555Z,100856.17
2023-02-04T23:54:28.452Z,100860.24
2023-02-04T23:56:57.036Z,100860.45
2023-02-04T23:59:26.268Z,100863.50
